Time;durP1;ratioP1;P1;durP2;ratioP2;P2;SDS_P1;SDS_P2;PMS_P1;PMS_P2;Temp;Humidity;BMP_temperature;BMP_pressure;BME280_temperature;BME280_humidity;BME280_pressure;Samples;Min_cycle;Max_cycle;Signal;HPM_P1;HPM_P2
2021/12/18 00:03:17;;;;;;;71.80;14.03;;;;;4.20;98156.00;;;;8370791;28;20223;-80
2021/12/18 00:07:22;;;;;;;63.53;15.03;;;;;4.30;98151.00;;;;8371775;28;20228;-79
2021/12/18 00:11:25;;;;;;;69.47;14.40;;;;;4.30;98155.00;;;;8372180;28;20605;-79
2021/12/18 00:15:30;;;;;;;68.27;13.37;;;;;4.40;98160.00;;;;8383905;28;20261;-79
2021/12/18 00:19:33;;;;;;;59.67;14.53;;;;;4.40;98167.00;;;;8384508;28;20593;-79
2021/12/18 00:23:38;;;;;;;63.20;14.10;;;;;4.40;98159.00;;;;8377826;28;20262;-78
2021/12/18 00:27:42;;;;;;;58.27;13.53;;;;;4.40;98162.00;;;;8381443;28;20313;-80
2021/12/18 00:31:45;;;;;;;64.00;13.57;;;;;4.50;98159.00;;;;8367912;28;20262;-80
2021/12/18 00:35:48;;;;;;;63.10;14.23;;;;;4.50;98161.00;;;;8373978;28;20257;-82
2021/12/18 00:39:56;;;;;;;63.90;14.73;;;;;4.50;98163.00;;;;8373706;28;20246;-81
2021/12/18 00:44:02;;;;;;;61.33;13.63;;;;;4.60;98163.00;;;;8381262;28;20239;-82
2021/12/18 00:48:06;;;;;;;50.67;13.40;;;;;4.60;98171.00;;;;8374477;28;20583;-82
2021/12/18 00:52:09;;;;;;;45.17;12.03;;;;;4.60;98166.00;;;;8375792;28;20240;-80
2021/12/18 00:56:15;;;;;;;54.73;12.57;;;;;4.60;98171.00;;;;8381732;28;20226;-80
2021/12/18 01:00:23;;;;;;;54.80;13.73;;;;;4.70;98179.00;;;;8383946;28;20812;-80
2021/12/18 01:04:27;;;;;;;64.97;13.33;;;;;4.70;98175.00;;;;8378565;28;20236;-80
2021/12/18 01:08:30;;;;;;;58.67;13.80;;;;;4.70;98173.00;;;;8382051;28;20235;-81
2021/12/18 01:12:39;;;;;;;62.50;13.97;;;;;4.70;98174.00;;;;8383033;28;20258;-81
2021/12/18 01:16:50;;;;;;;53.80;12.93;;;;;4.70;98181.00;;;;8381292;28;20594;-81
2021/12/18 01:25:15;;;;;;;52.97;12.80;;;;;4.80;98177.00;;;;8363404;28;20228;-82
2021/12/18 01:29:20;;;;;;;52.87;12.80;;;;;4.80;98175.00;;;;8377496;28;20232;-82
2021/12/18 01:33:23;;;;;;;45.83;12.23;;;;;4.80;98177.00;;;;8382244;28;20263;-82
2021/12/18 01:37:26;;;;;;;53.53;13.23;;;;;4.80;98173.00;;;;8374238;28;20285;-82
2021/12/18 01:41:36;;;;;;;51.67;13.43;;;;;4.80;98182.00;;;;8373944;28;20216;-80
2021/12/18 01:45:59;;;;;;;54.30;13.47;;;;;4.80;98186.00;;;;8382263;28;20687;-82
2021/12/18 01:54:27;;;;;;;58.47;12.63;;;;;4.90;98196.00;;;;8376469;28;20641;-85
2021/12/18 01:58:30;;;;;;;53.50;13.23;;;;;4.90;98205.00;;;;8376526;28;20219;-81
2021/12/18 02:02:34;;;;;;;53.40;13.53;;;;;4.90;98200.00;;;;8379656;28;20243;-83
2021/12/18 02:06:38;;;;;;;51.53;12.80;;;;;4.80;98196.00;;;;8376145;28;20319;-81
2021/12/18 02:10:48;;;;;;;57.20;13.77;;;;;4.70;98181.00;;;;8377348;28;20263;-81
2021/12/18 02:23:40;;;;;;;52.57;13.30;;;;;4.70;98172.00;;;;8371148;28;20249;-81
2021/12/18 02:27:43;;;;;;;54.33;12.80;;;;;4.60;98154.00;;;;8379440;28;20255;-81
2021/12/18 02:31:47;;;;;;;49.70;13.33;;;;;4.60;98157.00;;;;8377691;28;20232;-83
2021/12/18 02:35:53;;;;;;;66.27;13.90;;;;;4.60;98153.00;;;;8378801;28;20234;-81
2021/12/18 02:44:15;;;;;;;52.70;13.63;;;;;4.60;98153.00;;;;8374560;28;20223;-80
2021/12/18 02:48:18;;;;;;;66.50;14.17;;;;;4.70;98155.00;;;;8367826;28;20764;-81
2021/12/18 02:52:29;;;;;;;54.40;13.37;;;;;4.70;98149.00;;;;8381296;28;20227;-79
2021/12/18 02:56:34;;;;;;;60.57;13.90;;;;;4.70;98145.00;;;;8372979;28;20298;-78
2021/12/18 03:05:05;;;;;;;58.30;14.43;;;;;4.60;98149.00;;;;8250847;28;20674;-81
2021/12/18 03:26:37;;;;;;;50.50;12.87;;;;;4.80;98148.00;;;;8245528;28;20342;-80
2021/12/18 03:30:41;;;;;;;55.23;13.00;;;;;4.70;98146.00;;;;8258293;28;20233;-80
2021/12/18 03:34:45;;;;;;;53.87;12.93;;;;;4.70;98147.00;;;;8258286;28;20228;-80
2021/12/18 03:38:48;;;;;;;47.77;12.77;;;;;4.70;98142.00;;;;8259025;28;20229;-82
2021/12/18 03:42:52;;;;;;;60.13;13.50;;;;;4.70;98142.00;;;;8260251;28;20485;-81
2021/12/18 03:46:56;;;;;;;53.23;13.47;;;;;4.70;98137.00;;;;8255768;28;20238;-82
2021/12/18 03:51:00;;;;;;;52.00;14.33;;;;;4.70;98137.00;;;;8267149;28;20223;-81
2021/12/18 03:55:04;;;;;;;58.67;13.83;;;;;4.70;98137.00;;;;8254168;28;20243;-80
2021/12/18 03:59:07;;;;;;;55.70;13.23;;;;;4.70;98145.00;;;;8258275;28;20233;-82
2021/12/18 04:03:11;;;;;;;63.57;14.67;;;;;4.70;98146.00;;;;8284604;28;20236;-81
2021/12/18 04:07:16;;;;;;;59.60;13.80;;;;;4.70;98147.00;;;;8280327;28;20287;-81
2021/12/18 04:11:20;;;;;;;57.17;13.20;;;;;4.70;98134.00;;;;8282298;28;20273;-80
2021/12/18 04:15:23;;;;;;;70.70;15.20;;;;;4.70;98146.00;;;;8301257;28;20229;-81
2021/12/18 04:19:28;;;;;;;66.47;14.43;;;;;4.70;98140.00;;;;8292755;28;20885;-80
2021/12/18 04:23:31;;;;;;;66.37;13.70;;;;;4.70;98148.00;;;;8291464;28;20271;-81
2021/12/18 04:27:35;;;;;;;65.37;13.20;;;;;4.70;98139.00;;;;8289470;28;20234;-80
2021/12/18 04:31:39;;;;;;;59.37;13.93;;;;;4.80;98151.00;;;;8301470;28;20225;-80
2021/12/18 04:35:44;;;;;;;67.20;15.40;;;;;4.80;98155.00;;;;8294202;28;20228;-81
2021/12/18 04:39:48;;;;;;;53.07;13.77;;;;;4.90;98145.00;;;;8302543;28;20240;-81
2021/12/18 04:43:52;;;;;;;58.83;14.10;;;;;4.90;98152.00;;;;8295223;28;20225;-80
2021/12/18 04:47:56;;;;;;;61.80;14.60;;;;;4.90;98145.00;;;;8283682;28;20227;-79
2021/12/18 04:52:02;;;;;;;52.87;13.10;;;;;4.90;98140.00;;;;8302498;28;20762;-80
2021/12/18 04:56:06;;;;;;;60.17;13.73;;;;;4.90;98142.00;;;;8291377;28;20246;-79
2021/12/18 05:00:13;;;;;;;55.70;13.67;;;;;4.90;98156.00;;;;8290813;28;20258;-79
2021/12/18 05:04:16;;;;;;;49.00;13.07;;;;;4.80;98150.00;;;;8288017;28;20955;-82
2021/12/18 05:08:21;;;;;;;50.67;12.27;;;;;4.80;98158.00;;;;8292800;28;20240;-81
2021/12/18 05:12:25;;;;;;;52.20;13.40;;;;;4.80;98162.00;;;;8288568;28;20243;-84
2021/12/18 05:16:28;;;;;;;54.73;12.60;;;;;4.80;98163.00;;;;8289291;28;20247;-82
2021/12/18 05:20:31;;;;;;;56.03;13.47;;;;;4.80;98161.00;;;;8295951;28;20224;-82
2021/12/18 05:24:36;;;;;;;44.53;13.70;;;;;4.80;98163.00;;;;8297415;28;20279;-81
2021/12/18 05:28:39;;;;;;;61.13;13.00;;;;;4.80;98165.00;;;;8287938;28;20274;-80
2021/12/18 05:32:43;;;;;;;63.50;13.43;;;;;4.70;98165.00;;;;8299190;28;20226;-83
2021/12/18 05:37:13;;;;;;;62.47;14.43;;;;;4.70;98168.00;;;;8298668;28;20236;-82
2021/12/18 05:41:17;;;;;;;67.23;16.33;;;;;4.70;98161.00;;;;8285599;28;20228;-82
2021/12/18 05:45:20;;;;;;;83.23;16.23;;;;;4.80;98161.00;;;;8285047;28;20233;-82
2021/12/18 05:49:24;;;;;;;72.10;16.67;;;;;4.80;98162.00;;;;8287630;28;21920;-81
2021/12/18 05:53:27;;;;;;;78.30;15.80;;;;;4.80;98160.00;;;;8283943;28;20548;-83
2021/12/18 05:57:32;;;;;;;67.83;14.37;;;;;4.80;98163.00;;;;8278593;28;20237;-82
2021/12/18 06:01:36;;;;;;;65.70;15.00;;;;;4.70;98156.00;;;;8282970;28;20268;-84
2021/12/18 06:05:39;;;;;;;72.07;15.77;;;;;4.80;98160.00;;;;8282680;28;20919;-81
2021/12/18 06:09:42;;;;;;;61.23;14.87;;;;;4.70;98156.00;;;;8284641;28;20252;-82
2021/12/18 06:13:48;;;;;;;67.13;13.73;;;;;4.70;98159.00;;;;8282915;28;20230;-83
2021/12/18 06:17:53;;;;;;;57.40;13.33;;;;;4.70;98164.00;;;;8288125;28;20253;-83
2021/12/18 06:21:56;;;;;;;66.80;14.23;;;;;4.70;98169.00;;;;8304893;28;20787;-83
2021/12/18 06:26:00;;;;;;;53.30;12.30;;;;;4.70;98179.00;;;;8300927;28;20235;-79
2021/12/18 06:30:07;;;;;;;70.37;13.87;;;;;4.70;98170.00;;;;8300457;28;20241;-83
2021/12/18 06:34:12;;;;;;;63.77;13.43;;;;;4.70;98168.00;;;;8279767;28;20228;-82
2021/12/18 06:38:16;;;;;;;65.90;13.90;;;;;4.70;98166.00;;;;8298373;28;20587;-85
2021/12/18 06:42:19;;;;;;;63.10;13.93;;;;;4.70;98172.00;;;;8288641;28;20605;-85
2021/12/18 06:46:24;;;;;;;62.03;13.67;;;;;4.70;98165.00;;;;8290921;28;20228;-83
2021/12/18 06:50:27;;;;;;;64.50;14.17;;;;;4.70;98161.00;;;;8297308;28;20259;-81
2021/12/18 06:54:30;;;;;;;68.80;15.20;;;;;4.70;98167.00;;;;8292503;28;20231;-82
2021/12/18 06:58:34;;;;;;;72.87;15.43;;;;;4.70;98168.00;;;;8281304;28;20234;-81
2021/12/18 07:02:38;;;;;;;67.50;14.27;;;;;4.70;98164.00;;;;8276354;28;20227;-83
2021/12/18 07:06:42;;;;;;;66.73;15.47;;;;;4.70;98167.00;;;;8283253;28;20241;-81
2021/12/18 07:10:46;;;;;;;65.50;14.47;;;;;4.70;98161.00;;;;8286237;28;20748;-82
2021/12/18 07:14:49;;;;;;;80.73;15.00;;;;;4.80;98167.00;;;;8282849;28;20232;-81
2021/12/18 07:18:53;;;;;;;73.37;15.90;;;;;4.80;98181.00;;;;8282250;28;20341;-82
2021/12/18 07:22:58;;;;;;;73.73;15.40;;;;;4.90;98184.00;;;;8280503;28;20639;-83
2021/12/18 07:27:01;;;;;;;71.67;14.30;;;;;4.90;98186.00;;;;8286865;28;20239;-80
2021/12/18 07:31:04;;;;;;;69.80;14.97;;;;;5.00;98181.00;;;;8293944;28;20260;-81
2021/12/18 07:35:10;;;;;;;66.83;14.60;;;;;4.90;98178.00;;;;8283336;28;20269;-82
2021/12/18 07:39:14;;;;;;;73.97;15.17;;;;;4.90;98181.00;;;;8286908;28;20230;-83
2021/12/18 07:43:17;;;;;;;62.77;13.10;;;;;4.90;98179.00;;;;8277586;28;20649;-83
2021/12/18 07:47:21;;;;;;;67.20;15.67;;;;;4.90;98181.00;;;;8288950;28;20795;-84
2021/12/18 07:51:25;;;;;;;72.43;17.23;;;;;5.00;98181.00;;;;8289998;28;20225;-82
2021/12/18 07:55:29;;;;;;;77.73;16.50;;;;;5.00;98177.00;;;;8286936;28;20770;-80
2021/12/18 07:59:32;;;;;;;69.00;16.10;;;;;5.10;98168.00;;;;8289292;28;20235;-73
2021/12/18 08:03:36;;;;;;;69.20;15.97;;;;;5.20;98171.00;;;;8284512;28;20230;-80
2021/12/18 08:07:41;;;;;;;77.03;16.67;;;;;5.30;98175.00;;;;8297626;28;20266;-76
2021/12/18 08:11:44;;;;;;;70.57;16.60;;;;;5.40;98173.00;;;;8297970;28;20263;-79
2021/12/18 08:15:47;;;;;;;67.67;15.27;;;;;5.40;98187.00;;;;8274823;28;20233;-77
2021/12/18 08:19:51;;;;;;;75.53;16.20;;;;;5.40;98185.00;;;;8296976;28;20229;-77
2021/12/18 08:23:55;;;;;;;67.07;15.70;;;;;5.40;98190.00;;;;8301409;28;20236;-77
2021/12/18 08:28:00;;;;;;;59.97;15.13;;;;;5.50;98185.00;;;;8278059;28;20746;-81
2021/12/18 08:32:04;;;;;;;65.33;15.23;;;;;5.60;98188.00;;;;8283476;28;20720;-82
2021/12/18 08:36:07;;;;;;;80.53;16.53;;;;;5.70;98177.00;;;;8288685;28;20270;-81
2021/12/18 08:40:13;;;;;;;71.97;16.07;;;;;5.80;98179.00;;;;8295635;28;20595;-81
2021/12/18 08:44:17;;;;;;;61.20;14.87;;;;;5.90;98189.00;;;;8297752;28;20820;-80
2021/12/18 08:48:21;;;;;;;71.87;14.43;;;;;6.00;98190.00;;;;8292001;28;20238;-80
2021/12/18 08:52:25;;;;;;;60.23;14.10;;;;;6.10;98185.00;;;;8287183;28;20234;-80
2021/12/18 08:56:29;;;;;;;68.90;15.00;;;;;6.20;98187.00;;;;8298800;28;20256;-81
2021/12/18 09:00:33;;;;;;;62.63;15.23;;;;;6.20;98185.00;;;;8286242;28;20671;-81
2021/12/18 09:04:37;;;;;;;67.13;15.60;;;;;6.30;98186.00;;;;8300128;28;20241;-81
2021/12/18 09:08:41;;;;;;;55.77;14.93;;;;;6.40;98182.00;;;;8297916;28;20843;-81
2021/12/18 09:12:46;;;;;;;62.50;14.73;;;;;6.60;98186.00;;;;8297930;28;20257;-82
2021/12/18 09:16:50;;;;;;;70.10;14.90;;;;;6.60;98192.00;;;;8294597;28;20245;-81
2021/12/18 09:20:54;;;;;;;54.80;14.87;;;;;6.70;98199.00;;;;8278461;28;20233;-81
2021/12/18 09:24:57;;;;;;;69.13;16.13;;;;;6.60;98201.00;;;;8282354;28;20238;-74
2021/12/18 09:29:03;;;;;;;72.77;16.00;;;;;6.60;98187.00;;;;8287676;28;20233;-74
2021/12/18 09:33:13;;;;;;;73.07;15.87;;;;;6.70;98197.00;;;;8293370;28;20305;-74
2021/12/18 09:37:16;;;;;;;65.27;15.83;;;;;6.80;98186.00;;;;8295298;28;21100;-72
2021/12/18 09:41:20;;;;;;;63.47;16.27;;;;;6.90;98185.00;;;;8296718;28;20230;-74
2021/12/18 09:45:25;;;;;;;55.83;14.67;;;;;7.00;98185.00;;;;8284591;28;20257;-75
2021/12/18 09:49:30;;;;;;;62.23;15.10;;;;;7.00;98181.00;;;;8281811;28;20228;-75
2021/12/18 09:53:33;;;;;;;62.60;15.43;;;;;7.20;98178.00;;;;8296694;28;20226;-76
2021/12/18 09:57:37;;;;;;;48.47;14.43;;;;;7.30;98167.00;;;;8287455;28;20656;-75
2021/12/18 10:01:42;;;;;;;41.80;13.57;;;;;7.30;98169.00;;;;8289511;28;20237;-74
2021/12/18 10:05:45;;;;;;;37.87;12.40;;;;;7.40;98172.00;;;;8289427;28;20233;-75
2021/12/18 10:09:50;;;;;;;43.40;13.60;;;;;7.50;98164.00;;;;8297481;28;20237;-75
2021/12/18 10:13:55;;;;;;;30.97;11.43;;;;;7.60;98164.00;;;;8290046;28;20267;-73
2021/12/18 10:18:08;;;;;;;38.33;12.33;;;;;7.70;98153.00;;;;8291274;28;20224;-73
2021/12/18 10:22:13;;;;;;;28.60;10.67;;;;;7.90;98156.00;;;;8283991;28;20233;-74
2021/12/18 10:26:37;;;;;;;15.43;7.40;;;;;8.00;98157.00;;;;8284217;28;20234;-73
2021/12/18 10:30:45;;;;;;;19.13;9.13;;;;;7.90;98146.00;;;;8286944;28;20230;-76
2021/12/18 10:34:54;;;;;;;17.07;8.47;;;;;7.90;98147.00;;;;8289018;28;20693;-76
2021/12/18 10:38:57;;;;;;;16.23;8.00;;;;;8.00;98142.00;;;;8298265;28;20229;-75
2021/12/18 10:43:00;;;;;;;19.07;9.87;;;;;8.10;98135.00;;;;8286800;28;20249;-76
2021/12/18 10:47:03;;;;;;;13.30;7.60;;;;;8.20;98142.00;;;;8296074;28;20237;-75
2021/12/18 10:51:08;;;;;;;17.57;8.30;;;;;8.30;98128.00;;;;8299705;28;20235;-77
2021/12/18 10:55:12;;;;;;;20.50;8.17;;;;;8.30;98138.00;;;;8291507;28;20233;-73
2021/12/18 10:59:23;;;;;;;15.57;7.97;;;;;8.20;98136.00;;;;8295226;28;20740;-71
2021/12/18 11:03:32;;;;;;;17.43;8.60;;;;;8.30;98132.00;;;;8301651;28;20805;-72
2021/12/18 11:07:42;;;;;;;15.50;8.13;;;;;8.40;98131.00;;;;8284148;28;20254;-72
2021/12/18 11:16:13;;;;;;;21.83;9.73;;;;;8.10;98125.00;;;;8299469;28;20225;-71
2021/12/18 11:20:17;;;;;;;21.63;9.57;;;;;8.00;98120.00;;;;8284662;28;20633;-71
2021/12/18 11:24:29;;;;;;;16.20;8.57;;;;;7.80;98114.00;;;;8291741;28;20225;-71
2021/12/18 11:28:35;;;;;;;20.17;9.10;;;;;7.70;98115.00;;;;8298956;28;20249;-72
2021/12/18 11:32:40;;;;;;;17.10;9.27;;;;;7.70;98108.00;;;;8278611;28;20222;-72
2021/12/18 11:36:46;;;;;;;18.17;9.07;;;;;7.70;98105.00;;;;8289012;28;20385;-77
2021/12/18 11:40:51;;;;;;;21.10;9.97;;;;;7.70;98096.00;;;;8280576;28;20248;-78
2021/12/18 11:44:57;;;;;;;19.40;11.15;;;;;7.60;98085.00;;;;8280364;28;20466;-76
2021/12/18 11:49:03;;;;;;;18.87;10.53;;;;;7.80;98077.00;;;;8281176;28;20266;-73
2021/12/18 11:53:11;;;;;;;22.83;11.47;;;;;7.80;98079.00;;;;8283586;28;20284;-75
2021/12/18 11:57:36;;;;;;;22.47;11.23;;;;;7.60;98075.00;;;;8283686;28;20272;-75
2021/12/18 12:01:46;;;;;;;22.90;11.00;;;;;7.70;98069.00;;;;8283915;28;20241;-74
2021/12/18 12:05:49;;;;;;;27.00;12.63;;;;;7.90;98052.00;;;;8285332;28;20320;-73
2021/12/18 12:10:11;;;;;;;23.63;11.80;;;;;7.90;98048.00;;;;8289810;28;20983;-74
2021/12/18 12:14:21;;;;;;;27.97;11.30;;;;;8.10;98037.00;;;;8288007;28;20695;-74
2021/12/18 12:18:24;;;;;;;23.50;11.63;;;;;8.20;98038.00;;;;8287070;28;20222;-75
2021/12/18 12:22:53;;;;;;;25.67;12.00;;;;;8.30;98032.00;;;;8292854;28;20221;-75
2021/12/18 12:27:25;;;;;;;20.60;11.17;;;;;8.30;98028.00;;;;8291435;28;20713;-74
2021/12/18 12:31:31;;;;;;;20.13;11.20;;;;;8.40;98028.00;;;;8292004;28;20244;-74
2021/12/18 12:36:04;;;;;;;23.20;11.10;;;;;8.40;98028.00;;;;8288079;28;20229;-74
2021/12/18 12:40:12;;;;;;;21.97;11.37;;;;;8.40;98016.00;;;;8289362;28;20261;-73
2021/12/18 12:44:48;;;;;;;25.33;12.00;;;;;8.30;98003.00;;;;8289202;28;20395;-74
2021/12/18 12:49:06;;;;;;;21.33;11.47;;;;;8.20;98008.00;;;;8284829;28;20245;-74
2021/12/18 12:53:10;;;;;;;22.23;10.53;;;;;8.20;97998.00;;;;8288379;28;20245;-74
2021/12/18 12:57:35;;;;;;;21.33;10.90;;;;;8.20;97996.00;;;;8286088;28;20251;-73
2021/12/18 13:01:39;;;;;;;19.83;10.67;;;;;8.10;97998.00;;;;8276452;28;20249;-71
2021/12/18 13:05:53;;;;;;;23.00;11.33;;;;;8.10;98004.00;;;;8285815;28;20242;-73
2021/12/18 13:09:59;;;;;;;19.93;10.70;;;;;8.00;98001.00;;;;8292876;28;20904;-73
2021/12/18 13:14:03;;;;;;;23.37;10.60;;;;;7.80;97997.00;;;;8286342;28;20225;-73
2021/12/18 13:18:08;;;;;;;19.63;10.37;;;;;7.80;97996.00;;;;8286439;28;20249;-73
2021/12/18 13:22:14;;;;;;;23.53;11.93;;;;;7.70;97997.00;;;;8285778;28;20252;-71
2021/12/18 13:26:20;;;;;;;20.47;10.80;;;;;7.60;97988.00;;;;8268097;28;20312;-72
2021/12/18 13:30:25;;;;;;;20.77;10.70;;;;;7.60;97988.00;;;;8285603;28;20257;-73
2021/12/18 13:34:32;;;;;;;20.47;10.47;;;;;7.70;97997.00;;;;8284686;28;20254;-73
2021/12/18 13:38:38;;;;;;;21.93;10.97;;;;;7.60;97991.00;;;;8289724;28;20233;-72
2021/12/18 13:42:41;;;;;;;23.67;11.43;;;;;7.50;97979.00;;;;8285274;28;20587;-73
2021/12/18 13:46:45;;;;;;;24.17;11.27;;;;;7.60;97980.00;;;;8284677;28;20256;-74
2021/12/18 13:50:57;;;;;;;21.87;11.60;;;;;7.60;97974.00;;;;8282098;28;20234;-74
2021/12/18 13:55:02;;;;;;;21.13;11.20;;;;;7.50;97978.00;;;;8262242;28;20714;-74
2021/12/18 13:59:15;;;;;;;25.20;11.63;;;;;7.50;97967.00;;;;8281301;28;20337;-75
2021/12/18 14:03:20;;;;;;;22.53;11.77;;;;;7.40;97968.00;;;;8273926;28;20279;-73
2021/12/18 14:07:23;;;;;;;25.23;11.93;;;;;7.30;97957.00;;;;8285996;28;20237;-73
2021/12/18 14:11:36;;;;;;;21.30;10.87;;;;;7.30;97965.00;;;;8283972;28;20233;-74
2021/12/18 14:15:40;;;;;;;25.13;10.83;;;;;7.20;97961.00;;;;8282454;28;20250;-73
2021/12/18 14:19:47;;;;;;;25.83;11.60;;;;;7.10;97967.00;;;;8283144;28;20257;-74
2021/12/18 14:24:13;;;;;;;22.73;11.40;;;;;6.80;97973.00;;;;8282167;28;20642;-74
2021/12/18 14:28:21;;;;;;;20.87;11.07;;;;;6.70;97969.00;;;;8277938;28;20256;-73
2021/12/18 14:32:26;;;;;;;26.57;10.63;;;;;6.70;97964.00;;;;8280420;28;20256;-74
2021/12/18 14:36:52;;;;;;;25.30;11.57;;;;;6.60;97957.00;;;;8283520;28;20233;-74
2021/12/18 14:40:58;;;;;;;28.43;11.73;;;;;6.50;97955.00;;;;8282306;28;20228;-74
2021/12/18 14:45:06;;;;;;;20.73;10.83;;;;;6.40;97955.00;;;;8282877;28;20287;-75
2021/12/18 14:49:11;;;;;;;19.80;10.17;;;;;6.50;97954.00;;;;8280468;28;20686;-74
2021/12/18 14:53:16;;;;;;;25.13;10.87;;;;;6.50;97950.00;;;;8275965;28;20747;-73
2021/12/18 14:57:23;;;;;;;24.10;11.00;;;;;6.50;97947.00;;;;8282155;28;20694;-73
2021/12/18 15:01:27;;;;;;;24.87;11.23;;;;;6.50;97947.00;;;;8272811;28;20229;-74
2021/12/18 15:06:07;;;;;;;19.43;10.47;;;;;6.30;97947.00;;;;8278361;28;20730;-74
2021/12/18 15:10:10;;;;;;;27.37;11.37;;;;;6.10;97949.00;;;;8200027;28;20257;-74
2021/12/18 15:14:15;;;;;;;31.93;12.20;;;;;6.00;97942.00;;;;8282614;28;20225;-74
2021/12/18 15:18:21;;;;;;;29.00;12.17;;;;;5.80;97942.00;;;;8264683;28;20237;-74
2021/12/18 15:22:25;;;;;;;22.63;10.90;;;;;5.60;97931.00;;;;8268513;28;20222;-75
2021/12/18 15:26:29;;;;;;;26.93;12.03;;;;;5.60;97938.00;;;;8281687;28;20702;-74
2021/12/18 15:30:35;;;;;;;23.20;11.27;;;;;5.60;97934.00;;;;8280564;28;20633;-74
2021/12/18 15:34:48;;;;;;;26.43;11.80;;;;;5.70;97930.00;;;;8279651;28;20253;-75
2021/12/18 15:38:53;;;;;;;28.77;12.03;;;;;5.70;97932.00;;;;8280922;28;20838;-73
2021/12/18 15:42:57;;;;;;;26.17;13.03;;;;;5.60;97931.00;;;;8278158;28;20233;-74
2021/12/18 15:47:01;;;;;;;24.70;11.77;;;;;5.70;97922.00;;;;8279950;28;20261;-73
2021/12/18 15:51:06;;;;;;;29.70;13.07;;;;;5.60;97924.00;;;;8286492;28;20237;-73
2021/12/18 15:55:10;;;;;;;28.83;13.47;;;;;5.50;97926.00;;;;8283711;28;20284;-74
2021/12/18 15:59:14;;;;;;;27.77;13.63;;;;;5.40;97918.00;;;;8275007;28;20933;-75
2021/12/18 16:03:18;;;;;;;31.23;13.23;;;;;5.30;97921.00;;;;8280592;28;20698;-71
2021/12/18 16:07:25;;;;;;;75.97;32.13;;;;;5.30;97921.00;;;;8287346;28;20237;-71
2021/12/18 16:11:28;;;;;;;35.40;14.10;;;;;5.30;97922.00;;;;8280507;28;20630;-71
2021/12/18 16:15:32;;;;;;;36.30;15.03;;;;;5.20;97914.00;;;;8276640;28;20316;-71
2021/12/18 16:19:38;;;;;;;29.17;12.00;;;;;5.20;97914.00;;;;8266113;28;20312;-70
2021/12/18 16:23:44;;;;;;;37.37;15.23;;;;;5.00;97915.00;;;;8284806;28;20233;-71
2021/12/18 16:27:49;;;;;;;211.70;78.50;;;;;5.00;97908.00;;;;8259422;28;20243;-71
2021/12/18 16:31:54;;;;;;;45.70;18.30;;;;;5.10;97912.00;;;;8279707;28;20268;-71
2021/12/18 16:35:57;;;;;;;37.70;16.13;;;;;5.10;97911.00;;;;8274337;28;20419;-71
2021/12/18 16:40:05;;;;;;;37.70;15.53;;;;;5.00;97906.00;;;;8274683;28;20686;-71
2021/12/18 16:44:08;;;;;;;349.93;130.50;;;;;5.00;97913.00;;;;8276980;28;20286;-71
2021/12/18 16:48:17;;;;;;;319.13;101.73;;;;;5.00;97901.00;;;;8274731;28;20595;-71
2021/12/18 16:52:23;;;;;;;44.77;19.23;;;;;5.00;97904.00;;;;8273537;28;20229;-71
2021/12/18 16:56:32;;;;;;;176.50;56.70;;;;;5.00;97903.00;;;;8277633;28;20233;-72
2021/12/18 17:00:36;;;;;;;42.80;19.17;;;;;5.00;97903.00;;;;8276099;28;20234;-71
2021/12/18 17:04:40;;;;;;;49.87;19.87;;;;;5.10;97903.00;;;;8279640;28;20327;-72
2021/12/18 17:08:44;;;;;;;56.60;19.80;;;;;5.10;97903.00;;;;8286803;28;20413;-72
2021/12/18 17:12:49;;;;;;;58.10;18.70;;;;;5.10;97904.00;;;;8278416;28;20328;-71
2021/12/18 17:16:53;;;;;;;59.67;21.20;;;;;5.00;97904.00;;;;8276732;28;20245;-72
2021/12/18 17:20:58;;;;;;;52.00;17.43;;;;;5.00;97898.00;;;;8282879;28;20361;-71
2021/12/18 17:25:01;;;;;;;57.33;19.87;;;;;4.90;97902.00;;;;8279975;28;20257;-71
2021/12/18 17:29:06;;;;;;;56.57;20.00;;;;;4.90;97905.00;;;;8283727;28;20299;-71
2021/12/18 17:33:10;;;;;;;65.00;21.50;;;;;4.90;97898.00;;;;8278472;28;20269;-71
2021/12/18 17:37:15;;;;;;;64.00;21.07;;;;;4.70;97890.00;;;;8286176;28;20235;-71
2021/12/18 17:41:18;;;;;;;60.03;19.53;;;;;4.70;97890.00;;;;8281279;28;20607;-71
2021/12/18 17:45:24;;;;;;;67.10;21.73;;;;;4.80;97887.00;;;;8281460;28;20334;-72
2021/12/18 17:49:28;;;;;;;71.27;21.53;;;;;4.90;97891.00;;;;8287033;28;20337;-71
2021/12/18 17:53:31;;;;;;;63.80;19.93;;;;;4.90;97891.00;;;;8286941;28;20229;-71
2021/12/18 17:57:34;;;;;;;72.20;22.77;;;;;4.90;97876.00;;;;8290341;28;20283;-71
2021/12/18 18:01:39;;;;;;;67.97;23.23;;;;;4.90;97872.00;;;;8288727;28;20325;-71
2021/12/18 18:05:42;;;;;;;66.23;22.17;;;;;4.80;97876.00;;;;8275664;28;20311;-70
2021/12/18 18:09:45;;;;;;;71.20;22.73;;;;;4.80;97873.00;;;;8280630;28;20317;-69
2021/12/18 18:13:48;;;;;;;85.70;23.97;;;;;4.80;97875.00;;;;8269179;28;20252;-71
2021/12/18 18:17:53;;;;;;;63.93;21.83;;;;;4.70;97877.00;;;;8273245;28;20325;-71
2021/12/18 18:21:58;;;;;;;71.47;22.97;;;;;4.70;97872.00;;;;8278315;28;20229;-72
2021/12/18 18:26:05;;;;;;;75.33;22.97;;;;;4.60;97870.00;;;;8279888;28;20321;-69
2021/12/18 18:30:09;;;;;;;67.77;20.80;;;;;4.50;97868.00;;;;8279009;28;20253;-70
2021/12/18 18:34:16;;;;;;;62.80;20.50;;;;;4.60;97861.00;;;;8257517;28;20861;-71
2021/12/18 18:38:19;;;;;;;58.23;19.40;;;;;4.60;97854.00;;;;8272136;28;20662;-71
2021/12/18 18:42:23;;;;;;;51.07;17.57;;;;;4.60;97859.00;;;;8277992;28;20302;-70
2021/12/18 18:46:33;;;;;;;57.40;18.30;;;;;4.60;97855.00;;;;8287242;28;20295;-70
2021/12/18 18:50:39;;;;;;;55.57;17.40;;;;;4.60;97843.00;;;;8278788;28;20230;-70
2021/12/18 18:54:45;;;;;;;53.80;16.70;;;;;4.70;97839.00;;;;8282531;28;20321;-70
2021/12/18 18:58:48;;;;;;;63.50;18.77;;;;;4.70;97846.00;;;;8277433;28;20225;-70
2021/12/18 19:02:52;;;;;;;59.73;18.23;;;;;4.70;97844.00;;;;8284783;28;20317;-70
2021/12/18 19:06:57;;;;;;;59.00;18.27;;;;;4.70;97833.00;;;;8281180;28;20309;-69
2021/12/18 19:11:00;;;;;;;62.53;20.17;;;;;4.70;97847.00;;;;8278451;28;20587;-69
2021/12/18 19:15:08;;;;;;;55.43;17.90;;;;;4.80;97835.00;;;;8279996;28;20287;-70
2021/12/18 19:19:21;;;;;;;60.10;18.83;;;;;4.80;97828.00;;;;8282891;28;20329;-69
2021/12/18 19:23:26;;;;;;;60.73;18.97;;;;;4.80;97830.00;;;;8282195;28;20234;-70
2021/12/18 19:27:30;;;;;;;64.80;19.27;;;;;4.80;97812.00;;;;8287390;28;20251;-70
2021/12/18 19:31:35;;;;;;;75.47;19.50;;;;;4.80;97823.00;;;;8292117;28;20234;-69
2021/12/18 19:35:40;;;;;;;52.03;16.77;;;;;4.70;97821.00;;;;8288009;28;20312;-70
2021/12/18 19:39:44;;;;;;;59.43;18.00;;;;;4.60;97825.00;;;;8291807;28;20291;-70
2021/12/18 19:43:48;;;;;;;66.83;18.47;;;;;4.60;97818.00;;;;8286080;28;20237;-71
2021/12/18 19:47:51;;;;;;;57.47;17.80;;;;;4.70;97813.00;;;;8284741;28;20248;-70
2021/12/18 19:51:55;;;;;;;61.20;15.67;;;;;4.70;97810.00;;;;8288841;28;20238;-70
2021/12/18 19:56:00;;;;;;;53.87;15.07;;;;;4.60;97817.00;;;;8288626;28;20695;-70
2021/12/18 20:00:06;;;;;;;57.00;14.90;;;;;4.70;97820.00;;;;8285013;28;20261;-69
2021/12/18 20:08:30;;;;;;;70.37;14.60;;;;;4.60;97828.00;;;;8287691;28;20217;-69
2021/12/18 20:12:35;;;;;;;57.83;14.93;;;;;4.60;97828.00;;;;8289729;28;20268;-69
2021/12/18 20:16:38;;;;;;;64.47;13.43;;;;;4.60;97831.00;;;;8293610;28;20245;-70
2021/12/18 20:20:41;;;;;;;53.93;13.23;;;;;4.60;97828.00;;;;8286018;28;20238;-70
2021/12/18 20:24:44;;;;;;;50.03;12.57;;;;;4.50;97831.00;;;;8289435;28;20257;-69
2021/12/18 20:28:50;;;;;;;51.40;12.53;;;;;4.50;97828.00;;;;8284796;28;20267;-69
2021/12/18 20:32:54;;;;;;;76.30;23.53;;;;;4.50;97825.00;;;;8289308;28;20253;-70
2021/12/18 20:36:58;;;;;;;57.90;13.73;;;;;4.40;97824.00;;;;8292642;28;20246;-71
2021/12/18 20:41:08;;;;;;;343.67;98.17;;;;;4.40;97813.00;;;;8289161;28;20721;-70
2021/12/18 20:45:13;;;;;;;56.80;15.83;;;;;4.40;97818.00;;;;8289821;28;20241;-69
2021/12/18 20:49:17;;;;;;;47.33;11.87;;;;;4.50;97810.00;;;;8283007;28;20313;-69
2021/12/18 20:53:20;;;;;;;47.23;11.13;;;;;4.50;97813.00;;;;8284510;28;20315;-71
2021/12/18 20:57:23;;;;;;;46.70;12.30;;;;;4.40;97812.00;;;;8280492;28;20226;-69
2021/12/18 21:01:29;;;;;;;37.83;10.03;;;;;4.40;97815.00;;;;8283243;28;20691;-71
2021/12/18 21:05:33;;;;;;;26.20;8.53;;;;;4.30;97805.00;;;;8284786;28;20260;-71
2021/12/18 21:09:36;;;;;;;29.27;8.17;;;;;4.30;97790.00;;;;8286514;28;20885;-68